Domov               UVHVVR             MKGP            O straneh              
ZDRAVSTVENO VARSTVO RASTLIN
  MREŽA AGROMET. POSTAJ
 ► PROGNOSTIČNA OBVESTILA
AGROMETEOROLOŠKI PODATKI -
ARSO
OBVLADOVANJE TVEGANJ ZARADI
NEUGODNIH VREMENSKIH RAZMER
  ► NARAVNE NESREČE
  ► SUŠA/MOČA
  ► NAMAKANJE
  ► ŽLED (gozdarstvo)
KARTOGRAFSKI PRIKAZI
SPLETNE POVEZAVE
PROJEKTI IN PUBLIKACIJE

AGROMETEOROLOŠKA MREŽA: VREMENSKE POSTAJE IN FENOLOŠKA OPAZOVANJA

Pregled podatkov za lokacijo Dutovlje, meteorološka postaja 38560

Pregled senzorjev na lokaciji

ID Ime Zadnja
vrednost
Datum
zadnje
spremembe
Tip
senzorja
4338 Omočenost lista (U) 0 U 25.3.2019 01:29 A730WET
2016 Padavine (mm) 0 mm 25.3.2019 01:30 Rain-O-Matic
2019 Relativna vlaga 2 m (% RH) 65,4 % RH 25.3.2019 01:30 50YA
2018 Temperatura 2 m (°C) 7,2 °C 25.3.2019 01:29 50YA

Pregled podatkov zadnjih 24 ur

Zap.
št.
Datum in čas Dutovlje
Omočenost
lista
Padavine Relativna
vlaga
2
m
Temperatura
2
m
1 25.3.2019 01:00
2 25.3.2019 00:30 0 0 65,4 7,2
3 25.3.2019 00:00 0 0 63,8 7,5
4 24.3.2019 23:30 0 0 61,5 8
5 24.3.2019 23:00 0 0 59,2 8,6
6 24.3.2019 22:30 0 0 58,7 8,6
7 24.3.2019 22:00 0 0 57,8 8,5
8 24.3.2019 21:30 0 0 55,6 8,7
9 24.3.2019 21:00 0 0 52,8 9,7
10 24.3.2019 20:30 0 0 51,4 10,4
11 24.3.2019 20:00 0 0 48 11,4
12 24.3.2019 19:30 0 0 43,6 12,9
13 24.3.2019 19:00 0 0 38,5 14,7
14 24.3.2019 18:30 0 0 33,3 16,5
15 24.3.2019 18:00 0 0 29,9 18,2
16 24.3.2019 17:30 0 0 29,3 18,6
17 24.3.2019 17:00 0 0 28,6 19,2
18 24.3.2019 16:30 0 0 28,7 19,5
19 24.3.2019 16:00 0 0 29,2 19,7
20 24.3.2019 15:30 0 0 28,8 19,9
21 24.3.2019 15:00 0 0 28,1 20,4
22 24.3.2019 14:30 0 0 27,7 20,6
23 24.3.2019 14:00 0 0 27,2 21,2
24 24.3.2019 13:30 0 0 27,2 21,6
25 24.3.2019 13:00 0 0 27,4 21,9
26 24.3.2019 12:30 0 0 27,8 21,4
27 24.3.2019 12:00 0 0 25,4 22,3
28 24.3.2019 11:30 0 0 24,8 22,5
29 24.3.2019 11:00 0 0 28,8 21,4
30 24.3.2019 10:30 0 0 30,4 20,2
31 24.3.2019 10:00 0 0 30,7 20,1
32 24.3.2019 09:30 0 0 33,1 19,5
33 24.3.2019 09:00 0 0 37,7 18,4
34 24.3.2019 08:30 0 0 40,8 17,2
35 24.3.2019 08:00 0 0 44,7 15,2
36 24.3.2019 07:30 0 0 51,6 12,6
37 24.3.2019 07:00 0 0 51,8 11,2
38 24.3.2019 06:30 0 0 51,5 11,1
39 24.3.2019 06:00 0 0 52,4 10,6
40 24.3.2019 05:30 0 0 54,7 9,9
41 24.3.2019 05:00 0 0 54 10
42 24.3.2019 04:30 0 0 55,5 9,7
43 24.3.2019 04:00 0 0 55 10
44 24.3.2019 03:30 0 0 56,4 9,6
45 24.3.2019 03:00 0 0 57,9 8,8
46 24.3.2019 02:30 0 0 56,8 9
47 24.3.2019 02:00 0 0 56,4 8,9
48 24.3.2019 01:30 0 0 59,3 8,1
© 2011 Ministrstvo za kmetijstvo, gozdarstvo in prehrano. Vse pravice pridržane.